sensor_id;sensor_type;location;lat;lon;timestamp;P1;durP1;ratioP1;P2;durP2;ratioP2
32810;SDS011;65470;47.324;8.548;2023-05-19T00:00:01;10.23;;;4.45;;
32810;SDS011;65470;47.324;8.548;2023-05-19T00:02:28;6.35;;;4.00;;
32810;SDS011;65470;47.324;8.548;2023-05-19T00:04:57;6.18;;;3.88;;
32810;SDS011;65470;47.324;8.548;2023-05-19T00:07:27;7.93;;;4.63;;
32810;SDS011;65470;47.324;8.548;2023-05-19T00:09:55;6.88;;;4.28;;
32810;SDS011;65470;47.324;8.548;2023-05-19T00:12:21;9.02;;;4.35;;
32810;SDS011;65470;47.324;8.548;2023-05-19T00:14:47;6.47;;;3.90;;
32810;SDS011;65470;47.324;8.548;2023-05-19T00:17:13;9.02;;;4.43;;
32810;SDS011;65470;47.324;8.548;2023-05-19T00:19:40;9.63;;;4.15;;
32810;SDS011;65470;47.324;8.548;2023-05-19T00:22:09;13.95;;;4.90;;
32810;SDS011;65470;47.324;8.548;2023-05-19T00:24:34;6.82;;;4.03;;
32810;SDS011;65470;47.324;8.548;2023-05-19T00:27:00;6.80;;;4.03;;
32810;SDS011;65470;47.324;8.548;2023-05-19T00:29:26;6.18;;;3.95;;
32810;SDS011;65470;47.324;8.548;2023-05-19T00:31:52;7.55;;;3.90;;
32810;SDS011;65470;47.324;8.548;2023-05-19T00:34:18;8.93;;;4.53;;
32810;SDS011;65470;47.324;8.548;2023-05-19T00:36:43;9.38;;;4.10;;
32810;SDS011;65470;47.324;8.548;2023-05-19T00:39:09;8.48;;;4.00;;
32810;SDS011;65470;47.324;8.548;2023-05-19T00:41:35;10.32;;;4.32;;
32810;SDS011;65470;47.324;8.548;2023-05-19T00:44:01;7.88;;;3.88;;
32810;SDS011;65470;47.324;8.548;2023-05-19T00:46:26;7.40;;;4.53;;
32810;SDS011;65470;47.324;8.548;2023-05-19T00:48:52;5.43;;;4.28;;
32810;SDS011;65470;47.324;8.548;2023-05-19T00:51:17;5.90;;;3.80;;
32810;SDS011;65470;47.324;8.548;2023-05-19T00:53:43;5.50;;;3.92;;
32810;SDS011;65470;47.324;8.548;2023-05-19T00:56:13;5.13;;;4.03;;
32810;SDS011;65470;47.324;8.548;2023-05-19T00:58:40;6.43;;;4.32;;
32810;SDS011;65470;47.324;8.548;2023-05-19T01:01:06;5.20;;;4.22;;
32810;SDS011;65470;47.324;8.548;2023-05-19T01:03:32;6.35;;;4.30;;
32810;SDS011;65470;47.324;8.548;2023-05-19T01:05:59;7.75;;;4.20;;
32810;SDS011;65470;47.324;8.548;2023-05-19T01:08:32;8.68;;;4.32;;
32810;SDS011;65470;47.324;8.548;2023-05-19T01:10:58;5.82;;;3.95;;
32810;SDS011;65470;47.324;8.548;2023-05-19T01:13:25;6.55;;;4.00;;
32810;SDS011;65470;47.324;8.548;2023-05-19T01:15:59;5.03;;;3.95;;
32810;SDS011;65470;47.324;8.548;2023-05-19T01:24:25;9.52;;;4.28;;
32810;SDS011;65470;47.324;8.548;2023-05-19T01:27:30;7.47;;;3.63;;
32810;SDS011;65470;47.324;8.548;2023-05-19T01:30:30;7.25;;;4.65;;
32810;SDS011;65470;47.324;8.548;2023-05-19T01:33:01;6.30;;;3.22;;
32810;SDS011;65470;47.324;8.548;2023-05-19T01:35:30;8.02;;;4.63;;
32810;SDS011;65470;47.324;8.548;2023-05-19T01:37:59;4.45;;;3.15;;
32810;SDS011;65470;47.324;8.548;2023-05-19T01:40:26;6.78;;;3.80;;
32810;SDS011;65470;47.324;8.548;2023-05-19T01:42:53;5.93;;;3.50;;
32810;SDS011;65470;47.324;8.548;2023-05-19T01:45:21;10.85;;;4.22;;
32810;SDS011;65470;47.324;8.548;2023-05-19T01:47:50;6.15;;;3.58;;
32810;SDS011;65470;47.324;8.548;2023-05-19T01:50:17;7.07;;;3.75;;
32810;SDS011;65470;47.324;8.548;2023-05-19T01:52:43;6.60;;;3.72;;
32810;SDS011;65470;47.324;8.548;2023-05-19T01:55:09;5.43;;;3.63;;
32810;SDS011;65470;47.324;8.548;2023-05-19T02:03:44;4.72;;;3.50;;
32810;SDS011;65470;47.324;8.548;2023-05-19T02:06:48;6.80;;;4.13;;
32810;SDS011;65470;47.324;8.548;2023-05-19T02:12:24;5.07;;;4.05;;
32810;SDS011;65470;47.324;8.548;2023-05-19T02:17:28;8.55;;;4.03;;
32810;SDS011;65470;47.324;8.548;2023-05-19T02:20:00;6.20;;;3.45;;
32810;SDS011;65470;47.324;8.548;2023-05-19T02:22:29;7.53;;;4.32;;
32810;SDS011;65470;47.324;8.548;2023-05-19T02:24:55;5.55;;;4.15;;
32810;SDS011;65470;47.324;8.548;2023-05-19T02:27:21;5.85;;;3.95;;
32810;SDS011;65470;47.324;8.548;2023-05-19T02:29:47;5.97;;;4.10;;
32810;SDS011;65470;47.324;8.548;2023-05-19T02:32:13;5.03;;;3.47;;
32810;SDS011;65470;47.324;8.548;2023-05-19T02:34:39;6.75;;;3.95;;
32810;SDS011;65470;47.324;8.548;2023-05-19T02:37:06;4.55;;;3.95;;
32810;SDS011;65470;47.324;8.548;2023-05-19T02:39:31;5.97;;;4.10;;
32810;SDS011;65470;47.324;8.548;2023-05-19T02:41:59;6.90;;;3.90;;
32810;SDS011;65470;47.324;8.548;2023-05-19T02:44:25;5.47;;;3.70;;
32810;SDS011;65470;47.324;8.548;2023-05-19T02:46:51;6.18;;;4.18;;
32810;SDS011;65470;47.324;8.548;2023-05-19T02:49:16;6.15;;;3.80;;
32810;SDS011;65470;47.324;8.548;2023-05-19T02:51:42;3.75;;;3.40;;
32810;SDS011;65470;47.324;8.548;2023-05-19T02:54:07;9.35;;;4.28;;
32810;SDS011;65470;47.324;8.548;2023-05-19T02:56:33;4.78;;;3.78;;
32810;SDS011;65470;47.324;8.548;2023-05-19T02:58:58;6.68;;;4.05;;
32810;SDS011;65470;47.324;8.548;2023-05-19T03:01:24;5.53;;;3.90;;
32810;SDS011;65470;47.324;8.548;2023-05-19T03:03:50;5.78;;;3.58;;
32810;SDS011;65470;47.324;8.548;2023-05-19T03:06:15;7.90;;;3.80;;
32810;SDS011;65470;47.324;8.548;2023-05-19T03:08:42;5.13;;;3.28;;
32810;SDS011;65470;47.324;8.548;2023-05-19T03:11:07;4.75;;;3.80;;
32810;SDS011;65470;47.324;8.548;2023-05-19T03:13:33;6.40;;;3.72;;
32810;SDS011;65470;47.324;8.548;2023-05-19T03:15:59;4.30;;;3.90;;
32810;SDS011;65470;47.324;8.548;2023-05-19T03:18:26;5.75;;;3.70;;
32810;SDS011;65470;47.324;8.548;2023-05-19T03:20:51;4.35;;;3.95;;
32810;SDS011;65470;47.324;8.548;2023-05-19T03:23:20;4.13;;;3.58;;
32810;SDS011;65470;47.324;8.548;2023-05-19T03:25:46;3.92;;;3.60;;
32810;SDS011;65470;47.324;8.548;2023-05-19T03:28:12;4.63;;;3.42;;
32810;SDS011;65470;47.324;8.548;2023-05-19T03:30:37;6.97;;;3.45;;
32810;SDS011;65470;47.324;8.548;2023-05-19T03:33:03;7.97;;;3.80;;
32810;SDS011;65470;47.324;8.548;2023-05-19T03:35:31;5.47;;;3.63;;
32810;SDS011;65470;47.324;8.548;2023-05-19T03:37:57;6.68;;;4.18;;
32810;SDS011;65470;47.324;8.548;2023-05-19T03:40:22;5.70;;;3.88;;
32810;SDS011;65470;47.324;8.548;2023-05-19T03:42:48;5.32;;;4.03;;
32810;SDS011;65470;47.324;8.548;2023-05-19T03:45:13;4.80;;;3.70;;
32810;SDS011;65470;47.324;8.548;2023-05-19T03:47:39;7.00;;;4.13;;
32810;SDS011;65470;47.324;8.548;2023-05-19T03:50:05;4.82;;;4.32;;
32810;SDS011;65470;47.324;8.548;2023-05-19T03:52:31;6.00;;;4.13;;
32810;SDS011;65470;47.324;8.548;2023-05-19T03:54:57;5.18;;;3.83;;
32810;SDS011;65470;47.324;8.548;2023-05-19T03:57:23;5.70;;;4.40;;
32810;SDS011;65470;47.324;8.548;2023-05-19T03:59:48;7.90;;;4.72;;
32810;SDS011;65470;47.324;8.548;2023-05-19T04:02:14;6.82;;;4.22;;
32810;SDS011;65470;47.324;8.548;2023-05-19T04:04:39;5.07;;;4.55;;
32810;SDS011;65470;47.324;8.548;2023-05-19T04:07:05;8.50;;;4.72;;
32810;SDS011;65470;47.324;8.548;2023-05-19T04:09:31;5.35;;;4.68;;
32810;SDS011;65470;47.324;8.548;2023-05-19T04:11:59;7.53;;;4.07;;
32810;SDS011;65470;47.324;8.548;2023-05-19T04:14:26;6.50;;;4.00;;
32810;SDS011;65470;47.324;8.548;2023-05-19T04:16:52;8.10;;;3.72;;
32810;SDS011;65470;47.324;8.548;2023-05-19T04:19:18;6.45;;;4.65;;
32810;SDS011;65470;47.324;8.548;2023-05-19T04:21:43;9.95;;;4.85;;
32810;SDS011;65470;47.324;8.548;2023-05-19T04:24:09;5.20;;;4.32;;
32810;SDS011;65470;47.324;8.548;2023-05-19T04:26:34;7.32;;;4.05;;
32810;SDS011;65470;47.324;8.548;2023-05-19T04:29:02;8.13;;;4.53;;
32810;SDS011;65470;47.324;8.548;2023-05-19T04:31:28;7.45;;;3.72;;
32810;SDS011;65470;47.324;8.548;2023-05-19T04:33:54;6.30;;;4.50;;
32810;SDS011;65470;47.324;8.548;2023-05-19T04:36:20;7.67;;;4.63;;
32810;SDS011;65470;47.324;8.548;2023-05-19T04:38:46;4.95;;;3.72;;
32810;SDS011;65470;47.324;8.548;2023-05-19T04:41:12;7.13;;;4.50;;
32810;SDS011;65470;47.324;8.548;2023-05-19T04:43:40;4.85;;;3.95;;
32810;SDS011;65470;47.324;8.548;2023-05-19T04:46:08;6.13;;;5.13;;
32810;SDS011;65470;47.324;8.548;2023-05-19T04:48:35;5.80;;;4.45;;
32810;SDS011;65470;47.324;8.548;2023-05-19T04:51:01;5.45;;;4.53;;
32810;SDS011;65470;47.324;8.548;2023-05-19T04:53:27;6.15;;;4.40;;
32810;SDS011;65470;47.324;8.548;2023-05-19T04:55:53;6.72;;;4.72;;
32810;SDS011;65470;47.324;8.548;2023-05-19T04:58:20;5.68;;;4.43;;
32810;SDS011;65470;47.324;8.548;2023-05-19T05:00:49;5.55;;;4.40;;
32810;SDS011;65470;47.324;8.548;2023-05-19T05:03:15;7.47;;;4.65;;
32810;SDS011;65470;47.324;8.548;2023-05-19T05:05:41;9.60;;;4.32;;
32810;SDS011;65470;47.324;8.548;2023-05-19T05:10:34;13.77;;;4.82;;
32810;SDS011;65470;47.324;8.548;2023-05-19T05:12:59;6.68;;;4.80;;
32810;SDS011;65470;47.324;8.548;2023-05-19T05:15:25;6.32;;;4.30;;
32810;SDS011;65470;47.324;8.548;2023-05-19T05:17:53;6.57;;;5.15;;
32810;SDS011;65470;47.324;8.548;2023-05-19T05:20:19;8.18;;;4.40;;
32810;SDS011;65470;47.324;8.548;2023-05-19T05:22:45;8.52;;;5.40;;
32810;SDS011;65470;47.324;8.548;2023-05-19T05:25:11;6.78;;;4.50;;
32810;SDS011;65470;47.324;8.548;2023-05-19T05:27:38;8.30;;;5.15;;
32810;SDS011;65470;47.324;8.548;2023-05-19T05:30:03;5.65;;;4.50;;
32810;SDS011;65470;47.324;8.548;2023-05-19T05:32:30;8.32;;;5.03;;
32810;SDS011;65470;47.324;8.548;2023-05-19T05:34:55;7.63;;;4.82;;
32810;SDS011;65470;47.324;8.548;2023-05-19T05:37:21;5.78;;;4.40;;
32810;SDS011;65470;47.324;8.548;2023-05-19T05:39:47;8.18;;;4.78;;
32810;SDS011;65470;47.324;8.548;2023-05-19T05:42:12;7.72;;;5.47;;
32810;SDS011;65470;47.324;8.548;2023-05-19T05:44:38;5.47;;;4.38;;
32810;SDS011;65470;47.324;8.548;2023-05-19T05:47:04;6.47;;;4.72;;
32810;SDS011;65470;47.324;8.548;2023-05-19T05:49:30;7.28;;;5.28;;
32810;SDS011;65470;47.324;8.548;2023-05-19T05:51:55;5.82;;;4.90;;
32810;SDS011;65470;47.324;8.548;2023-05-19T05:54:21;6.63;;;4.72;;
32810;SDS011;65470;47.324;8.548;2023-05-19T05:56:48;6.75;;;4.90;;
32810;SDS011;65470;47.324;8.548;2023-05-19T05:59:14;5.13;;;4.43;;
32810;SDS011;65470;47.324;8.548;2023-05-19T06:01:40;8.55;;;5.15;;
32810;SDS011;65470;47.324;8.548;2023-05-19T06:04:07;6.40;;;4.45;;
32810;SDS011;65470;47.324;8.548;2023-05-19T06:06:33;7.82;;;4.97;;
32810;SDS011;65470;47.324;8.548;2023-05-19T06:09:00;5.72;;;5.05;;
32810;SDS011;65470;47.324;8.548;2023-05-19T06:11:25;7.47;;;4.80;;
32810;SDS011;65470;47.324;8.548;2023-05-19T06:13:52;9.55;;;4.70;;
32810;SDS011;65470;47.324;8.548;2023-05-19T06:16:18;8.93;;;5.63;;
32810;SDS011;65470;47.324;8.548;2023-05-19T06:18:43;5.18;;;4.68;;
32810;SDS011;65470;47.324;8.548;2023-05-19T06:21:09;5.05;;;4.55;;
32810;SDS011;65470;47.324;8.548;2023-05-19T06:23:37;7.10;;;5.60;;
32810;SDS011;65470;47.324;8.548;2023-05-19T06:26:03;5.57;;;4.68;;
32810;SDS011;65470;47.324;8.548;2023-05-19T06:28:29;6.05;;;5.13;;
32810;SDS011;65470;47.324;8.548;2023-05-19T06:30:55;8.63;;;5.28;;
32810;SDS011;65470;47.324;8.548;2023-05-19T06:33:21;6.25;;;4.75;;
32810;SDS011;65470;47.324;8.548;2023-05-19T06:35:47;5.85;;;5.00;;
32810;SDS011;65470;47.324;8.548;2023-05-19T06:38:12;5.80;;;4.85;;
32810;SDS011;65470;47.324;8.548;2023-05-19T06:40:38;6.13;;;5.20;;
32810;SDS011;65470;47.324;8.548;2023-05-19T06:43:04;8.02;;;5.15;;
32810;SDS011;65470;47.324;8.548;2023-05-19T06:45:30;6.80;;;5.60;;
32810;SDS011;65470;47.324;8.548;2023-05-19T06:47:56;6.68;;;5.30;;
32810;SDS011;65470;47.324;8.548;2023-05-19T06:50:22;6.93;;;5.55;;
32810;SDS011;65470;47.324;8.548;2023-05-19T06:52:48;8.15;;;5.78;;
32810;SDS011;65470;47.324;8.548;2023-05-19T06:55:14;6.85;;;5.57;;
32810;SDS011;65470;47.324;8.548;2023-05-19T06:57:40;6.65;;;5.95;;
32810;SDS011;65470;47.324;8.548;2023-05-19T07:00:06;6.53;;;5.45;;
32810;SDS011;65470;47.324;8.548;2023-05-19T07:02:36;5.97;;;5.20;;
32810;SDS011;65470;47.324;8.548;2023-05-19T07:05:02;6.78;;;5.40;;
32810;SDS011;65470;47.324;8.548;2023-05-19T07:07:28;7.93;;;5.63;;
32810;SDS011;65470;47.324;8.548;2023-05-19T07:09:53;7.85;;;5.90;;
32810;SDS011;65470;47.324;8.548;2023-05-19T07:12:19;7.68;;;6.40;;
32810;SDS011;65470;47.324;8.548;2023-05-19T07:14:45;8.60;;;6.57;;
32810;SDS011;65470;47.324;8.548;2023-05-19T07:17:10;5.82;;;4.90;;
32810;SDS011;65470;47.324;8.548;2023-05-19T07:19:36;7.35;;;6.22;;
32810;SDS011;65470;47.324;8.548;2023-05-19T07:22:02;9.95;;;5.82;;
32810;SDS011;65470;47.324;8.548;2023-05-19T07:24:28;7.50;;;5.72;;
32810;SDS011;65470;47.324;8.548;2023-05-19T07:26:55;7.25;;;5.72;;
32810;SDS011;65470;47.324;8.548;2023-05-19T07:29:20;7.50;;;5.80;;
32810;SDS011;65470;47.324;8.548;2023-05-19T07:31:46;7.35;;;6.10;;
32810;SDS011;65470;47.324;8.548;2023-05-19T07:34:12;6.68;;;5.50;;
32810;SDS011;65470;47.324;8.548;2023-05-19T07:36:37;7.90;;;6.07;;
32810;SDS011;65470;47.324;8.548;2023-05-19T07:39:03;6.18;;;5.53;;
32810;SDS011;65470;47.324;8.548;2023-05-19T07:41:29;11.85;;;6.32;;
32810;SDS011;65470;47.324;8.548;2023-05-19T07:43:54;10.38;;;6.20;;
32810;SDS011;65470;47.324;8.548;2023-05-19T07:46:20;6.93;;;6.05;;
32810;SDS011;65470;47.324;8.548;2023-05-19T07:48:46;10.93;;;6.18;;
32810;SDS011;65470;47.324;8.548;2023-05-19T07:51:12;6.72;;;5.63;;
32810;SDS011;65470;47.324;8.548;2023-05-19T07:53:38;8.68;;;5.85;;
32810;SDS011;65470;47.324;8.548;2023-05-19T07:56:04;5.72;;;4.97;;
32810;SDS011;65470;47.324;8.548;2023-05-19T07:58:29;7.07;;;6.20;;
32810;SDS011;65470;47.324;8.548;2023-05-19T08:00:56;7.93;;;5.90;;
32810;SDS011;65470;47.324;8.548;2023-05-19T08:03:22;8.98;;;5.63;;
32810;SDS011;65470;47.324;8.548;2023-05-19T08:05:48;8.20;;;5.72;;
32810;SDS011;65470;47.324;8.548;2023-05-19T08:08:14;7.07;;;6.22;;
32810;SDS011;65470;47.324;8.548;2023-05-19T08:10:43;8.48;;;5.68;;
32810;SDS011;65470;47.324;8.548;2023-05-19T08:13:09;8.13;;;5.75;;
32810;SDS011;65470;47.324;8.548;2023-05-19T08:15:35;7.72;;;5.72;;
32810;SDS011;65470;47.324;8.548;2023-05-19T08:18:01;8.23;;;5.65;;
32810;SDS011;65470;47.324;8.548;2023-05-19T08:20:27;9.88;;;6.78;;
32810;SDS011;65470;47.324;8.548;2023-05-19T08:22:52;12.30;;;7.10;;
32810;SDS011;65470;47.324;8.548;2023-05-19T08:25:18;7.43;;;6.40;;
32810;SDS011;65470;47.324;8.548;2023-05-19T08:27:44;8.05;;;6.85;;
32810;SDS011;65470;47.324;8.548;2023-05-19T08:30:10;8.50;;;5.70;;
32810;SDS011;65470;47.324;8.548;2023-05-19T08:32:36;6.55;;;5.93;;
32810;SDS011;65470;47.324;8.548;2023-05-19T08:35:02;7.15;;;6.20;;
32810;SDS011;65470;47.324;8.548;2023-05-19T08:37:28;7.10;;;6.15;;
32810;SDS011;65470;47.324;8.548;2023-05-19T08:39:54;10.48;;;6.30;;
32810;SDS011;65470;47.324;8.548;2023-05-19T08:42:19;9.95;;;6.38;;
32810;SDS011;65470;47.324;8.548;2023-05-19T08:44:45;7.78;;;6.15;;
32810;SDS011;65470;47.324;8.548;2023-05-19T08:47:11;12.10;;;7.50;;
32810;SDS011;65470;47.324;8.548;2023-05-19T08:49:44;8.95;;;6.30;;
32810;SDS011;65470;47.324;8.548;2023-05-19T08:58:14;6.75;;;5.55;;
32810;SDS011;65470;47.324;8.548;2023-05-19T09:00:44;7.38;;;6.30;;
32810;SDS011;65470;47.324;8.548;2023-05-19T09:03:11;9.98;;;7.18;;
32810;SDS011;65470;47.324;8.548;2023-05-19T09:05:37;10.13;;;6.50;;
32810;SDS011;65470;47.324;8.548;2023-05-19T09:08:03;10.30;;;6.78;;
32810;SDS011;65470;47.324;8.548;2023-05-19T09:10:28;8.80;;;6.55;;
32810;SDS011;65470;47.324;8.548;2023-05-19T09:12:54;9.73;;;6.63;;
32810;SDS011;65470;47.324;8.548;2023-05-19T09:15:20;10.15;;;7.35;;
32810;SDS011;65470;47.324;8.548;2023-05-19T09:17:49;11.82;;;7.18;;
32810;SDS011;65470;47.324;8.548;2023-05-19T09:20:15;9.27;;;7.78;;
32810;SDS011;65470;47.324;8.548;2023-05-19T09:22:45;7.70;;;6.57;;
32810;SDS011;65470;47.324;8.548;2023-05-19T09:25:24;10.23;;;6.80;;
32810;SDS011;65470;47.324;8.548;2023-05-19T09:27:50;8.57;;;6.85;;
32810;SDS011;65470;47.324;8.548;2023-05-19T09:30:18;10.63;;;7.03;;
32810;SDS011;65470;47.324;8.548;2023-05-19T09:32:45;8.57;;;6.97;;
32810;SDS011;65470;47.324;8.548;2023-05-19T09:35:11;8.18;;;6.22;;
32810;SDS011;65470;47.324;8.548;2023-05-19T09:37:40;11.18;;;7.18;;
32810;SDS011;65470;47.324;8.548;2023-05-19T09:40:07;9.40;;;6.60;;
32810;SDS011;65470;47.324;8.548;2023-05-19T09:42:37;11.82;;;7.50;;
32810;SDS011;65470;47.324;8.548;2023-05-19T09:45:04;13.73;;;8.77;;
32810;SDS011;65470;47.324;8.548;2023-05-19T09:47:35;9.10;;;6.40;;
32810;SDS011;65470;47.324;8.548;2023-05-19T09:50:07;10.05;;;8.23;;
32810;SDS011;65470;47.324;8.548;2023-05-19T09:52:34;13.45;;;9.20;;
32810;SDS011;65470;47.324;8.548;2023-05-19T09:55:01;10.10;;;7.78;;
32810;SDS011;65470;47.324;8.548;2023-05-19T09:57:31;10.48;;;8.18;;
32810;SDS011;65470;47.324;8.548;2023-05-19T10:00:01;7.97;;;6.45;;
32810;SDS011;65470;47.324;8.548;2023-05-19T10:02:40;11.27;;;7.95;;
32810;SDS011;65470;47.324;8.548;2023-05-19T10:05:08;11.25;;;6.80;;
32810;SDS011;65470;47.324;8.548;2023-05-19T10:07:36;11.00;;;8.43;;
32810;SDS011;65470;47.324;8.548;2023-05-19T10:10:05;11.57;;;7.40;;
32810;SDS011;65470;47.324;8.548;2023-05-19T10:12:35;11.57;;;8.00;;
32810;SDS011;65470;47.324;8.548;2023-05-19T10:15:03;9.73;;;7.60;;
32810;SDS011;65470;47.324;8.548;2023-05-19T10:17:31;7.50;;;6.68;;
32810;SDS011;65470;47.324;8.548;2023-05-19T10:19:59;8.73;;;7.10;;
32810;SDS011;65470;47.324;8.548;2023-05-19T10:22:25;9.52;;;6.90;;
32810;SDS011;65470;47.324;8.548;2023-05-19T10:24:52;8.60;;;6.53;;
32810;SDS011;65470;47.324;8.548;2023-05-19T10:27:19;8.80;;;6.97;;
32810;SDS011;65470;47.324;8.548;2023-05-19T10:29:47;10.75;;;7.88;;
32810;SDS011;65470;47.324;8.548;2023-05-19T10:32:16;9.00;;;6.95;;
32810;SDS011;65470;47.324;8.548;2023-05-19T10:37:33;12.25;;;7.82;;
32810;SDS011;65470;47.324;8.548;2023-05-19T10:40:15;11.75;;;8.70;;
32810;SDS011;65470;47.324;8.548;2023-05-19T10:42:56;11.60;;;6.80;;
32810;SDS011;65470;47.324;8.548;2023-05-19T10:45:43;9.30;;;6.72;;
32810;SDS011;65470;47.324;8.548;2023-05-19T10:48:15;8.30;;;6.63;;
32810;SDS011;65470;47.324;8.548;2023-05-19T10:50:43;8.82;;;6.50;;
32810;SDS011;65470;47.324;8.548;2023-05-19T10:53:16;10.55;;;7.32;;
32810;SDS011;65470;47.324;8.548;2023-05-19T10:55:51;13.25;;;7.43;;
32810;SDS011;65470;47.324;8.548;2023-05-19T10:59:02;8.85;;;7.18;;
32810;SDS011;65470;47.324;8.548;2023-05-19T11:01:12;9.88;;;7.38;;
32810;SDS011;65470;47.324;8.548;2023-05-19T11:03:45;9.00;;;6.47;;
32810;SDS011;65470;47.324;8.548;2023-05-19T11:06:34;11.02;;;8.00;;
32810;SDS011;65470;47.324;8.548;2023-05-19T11:09:13;12.48;;;7.22;;
32810;SDS011;65470;47.324;8.548;2023-05-19T11:11:46;7.70;;;6.90;;
32810;SDS011;65470;47.324;8.548;2023-05-19T11:14:20;11.35;;;7.30;;
32810;SDS011;65470;47.324;8.548;2023-05-19T11:16:50;9.07;;;7.55;;
32810;SDS011;65470;47.324;8.548;2023-05-19T11:19:26;14.85;;;7.88;;
32810;SDS011;65470;47.324;8.548;2023-05-19T11:21:54;11.75;;;7.68;;
32810;SDS011;65470;47.324;8.548;2023-05-19T11:24:36;12.20;;;8.10;;
32810;SDS011;65470;47.324;8.548;2023-05-19T11:27:18;9.05;;;7.10;;
32810;SDS011;65470;47.324;8.548;2023-05-19T11:29:55;15.98;;;7.80;;
32810;SDS011;65470;47.324;8.548;2023-05-19T11:32:29;9.77;;;6.13;;
32810;SDS011;65470;47.324;8.548;2023-05-19T11:35:00;8.77;;;6.57;;
32810;SDS011;65470;47.324;8.548;2023-05-19T11:37:26;10.65;;;6.65;;
32810;SDS011;65470;47.324;8.548;2023-05-19T11:39:55;8.77;;;7.10;;
32810;SDS011;65470;47.324;8.548;2023-05-19T11:42:22;8.60;;;6.80;;
32810;SDS011;65470;47.324;8.548;2023-05-19T11:44:48;10.10;;;7.05;;
32810;SDS011;65470;47.324;8.548;2023-05-19T11:47:14;7.88;;;7.05;;
32810;SDS011;65470;47.324;8.548;2023-05-19T11:49:44;7.80;;;7.00;;
32810;SDS011;65470;47.324;8.548;2023-05-19T11:52:11;9.18;;;6.30;;
32810;SDS011;65470;47.324;8.548;2023-05-19T11:54:37;8.85;;;7.28;;
32810;SDS011;65470;47.324;8.548;2023-05-19T11:57:06;6.90;;;6.15;;
32810;SDS011;65470;47.324;8.548;2023-05-19T11:59:34;8.80;;;6.72;;
32810;SDS011;65470;47.324;8.548;2023-05-19T12:02:02;7.97;;;6.28;;
32810;SDS011;65470;47.324;8.548;2023-05-19T12:04:39;11.95;;;6.97;;
32810;SDS011;65470;47.324;8.548;2023-05-19T12:07:05;8.82;;;6.15;;
32810;SDS011;65470;47.324;8.548;2023-05-19T12:09:31;7.55;;;5.80;;
32810;SDS011;65470;47.324;8.548;2023-05-19T12:11:56;9.98;;;6.93;;
32810;SDS011;65470;47.324;8.548;2023-05-19T12:14:25;13.85;;;6.78;;
32810;SDS011;65470;47.324;8.548;2023-05-19T12:16:53;15.98;;;7.07;;
32810;SDS011;65470;47.324;8.548;2023-05-19T12:19:21;8.73;;;6.72;;
32810;SDS011;65470;47.324;8.548;2023-05-19T12:21:47;15.05;;;7.05;;
32810;SDS011;65470;47.324;8.548;2023-05-19T12:24:13;6.95;;;5.78;;
32810;SDS011;65470;47.324;8.548;2023-05-19T12:26:39;6.93;;;5.68;;
32810;SDS011;65470;47.324;8.548;2023-05-19T12:29:04;7.43;;;6.03;;
32810;SDS011;65470;47.324;8.548;2023-05-19T12:31:31;6.60;;;5.85;;
32810;SDS011;65470;47.324;8.548;2023-05-19T12:33:58;9.00;;;6.70;;
32810;SDS011;65470;47.324;8.548;2023-05-19T12:36:25;7.20;;;5.25;;
32810;SDS011;65470;47.324;8.548;2023-05-19T12:38:55;7.88;;;5.68;;
32810;SDS011;65470;47.324;8.548;2023-05-19T12:41:22;7.43;;;5.57;;
32810;SDS011;65470;47.324;8.548;2023-05-19T12:43:48;8.35;;;5.68;;
32810;SDS011;65470;47.324;8.548;2023-05-19T12:46:14;5.90;;;5.18;;
32810;SDS011;65470;47.324;8.548;2023-05-19T12:48:42;7.20;;;5.85;;
32810;SDS011;65470;47.324;8.548;2023-05-19T12:51:09;7.30;;;5.05;;
32810;SDS011;65470;47.324;8.548;2023-05-19T12:53:39;7.70;;;5.45;;
32810;SDS011;65470;47.324;8.548;2023-05-19T12:56:15;9.13;;;5.72;;
32810;SDS011;65470;47.324;8.548;2023-05-19T12:58:41;6.20;;;5.47;;
32810;SDS011;65470;47.324;8.548;2023-05-19T13:01:14;8.85;;;5.22;;
32810;SDS011;65470;47.324;8.548;2023-05-19T13:03:41;6.97;;;4.53;;
32810;SDS011;65470;47.324;8.548;2023-05-19T13:06:07;6.63;;;4.80;;
32810;SDS011;65470;47.324;8.548;2023-05-19T13:08:33;7.47;;;5.28;;
32810;SDS011;65470;47.324;8.548;2023-05-19T13:10:59;6.55;;;4.32;;
32810;SDS011;65470;47.324;8.548;2023-05-19T13:13:25;8.48;;;5.80;;
32810;SDS011;65470;47.324;8.548;2023-05-19T13:15:51;8.75;;;5.63;;
32810;SDS011;65470;47.324;8.548;2023-05-19T13:18:17;7.28;;;5.75;;
32810;SDS011;65470;47.324;8.548;2023-05-19T13:20:43;6.63;;;5.00;;
32810;SDS011;65470;47.324;8.548;2023-05-19T13:23:10;7.80;;;5.20;;
32810;SDS011;65470;47.324;8.548;2023-05-19T13:25:36;7.53;;;5.57;;
32810;SDS011;65470;47.324;8.548;2023-05-19T13:28:03;7.22;;;5.65;;
32810;SDS011;65470;47.324;8.548;2023-05-19T13:30:32;11.68;;;5.38;;
32810;SDS011;65470;47.324;8.548;2023-05-19T13:32:58;9.98;;;4.88;;
32810;SDS011;65470;47.324;8.548;2023-05-19T13:35:24;7.38;;;5.07;;
32810;SDS011;65470;47.324;8.548;2023-05-19T13:37:50;6.50;;;5.38;;
32810;SDS011;65470;47.324;8.548;2023-05-19T13:40:16;8.90;;;5.22;;
32810;SDS011;65470;47.324;8.548;2023-05-19T13:42:42;7.90;;;5.90;;
32810;SDS011;65470;47.324;8.548;2023-05-19T13:45:09;6.53;;;5.00;;
32810;SDS011;65470;47.324;8.548;2023-05-19T13:47:34;8.57;;;5.80;;
32810;SDS011;65470;47.324;8.548;2023-05-19T13:50:01;11.88;;;5.75;;
32810;SDS011;65470;47.324;8.548;2023-05-19T13:52:28;9.70;;;5.65;;
32810;SDS011;65470;47.324;8.548;2023-05-19T13:54:54;6.22;;;5.18;;
32810;SDS011;65470;47.324;8.548;2023-05-19T13:57:21;9.43;;;5.28;;
32810;SDS011;65470;47.324;8.548;2023-05-19T13:59:47;23.67;;;7.45;;
32810;SDS011;65470;47.324;8.548;2023-05-19T14:02:13;8.52;;;5.72;;
32810;SDS011;65470;47.324;8.548;2023-05-19T14:04:40;6.72;;;5.53;;
32810;SDS011;65470;47.324;8.548;2023-05-19T14:07:05;9.40;;;5.85;;
32810;SDS011;65470;47.324;8.548;2023-05-19T14:09:31;7.63;;;5.35;;
32810;SDS011;65470;47.324;8.548;2023-05-19T14:11:57;7.85;;;5.88;;
32810;SDS011;65470;47.324;8.548;2023-05-19T14:14:23;9.15;;;6.18;;
32810;SDS011;65470;47.324;8.548;2023-05-19T14:16:49;9.18;;;6.15;;
32810;SDS011;65470;47.324;8.548;2023-05-19T14:19:14;7.03;;;5.57;;
32810;SDS011;65470;47.324;8.548;2023-05-19T14:21:40;7.50;;;5.47;;
32810;SDS011;65470;47.324;8.548;2023-05-19T14:24:06;10.80;;;5.97;;
32810;SDS011;65470;47.324;8.548;2023-05-19T14:26:32;7.95;;;5.70;;
32810;SDS011;65470;47.324;8.548;2023-05-19T14:28:57;7.80;;;5.75;;
32810;SDS011;65470;47.324;8.548;2023-05-19T14:31:23;8.70;;;5.15;;
32810;SDS011;65470;47.324;8.548;2023-05-19T14:33:49;7.78;;;5.85;;
32810;SDS011;65470;47.324;8.548;2023-05-19T14:36:15;9.60;;;5.63;;
32810;SDS011;65470;47.324;8.548;2023-05-19T14:38:41;6.13;;;5.20;;
32810;SDS011;65470;47.324;8.548;2023-05-19T14:41:07;12.15;;;5.47;;
32810;SDS011;65470;47.324;8.548;2023-05-19T14:43:32;12.07;;;5.43;;
32810;SDS011;65470;47.324;8.548;2023-05-19T14:45:58;11.35;;;6.05;;
32810;SDS011;65470;47.324;8.548;2023-05-19T14:48:23;6.35;;;4.68;;
32810;SDS011;65470;47.324;8.548;2023-05-19T14:50:49;11.00;;;5.35;;
32810;SDS011;65470;47.324;8.548;2023-05-19T14:53:15;9.98;;;5.50;;
32810;SDS011;65470;47.324;8.548;2023-05-19T14:55:41;7.65;;;5.80;;
32810;SDS011;65470;47.324;8.548;2023-05-19T14:58:07;10.40;;;5.13;;
32810;SDS011;65470;47.324;8.548;2023-05-19T15:00:33;7.47;;;5.65;;
32810;SDS011;65470;47.324;8.548;2023-05-19T15:02:58;15.27;;;5.53;;
32810;SDS011;65470;47.324;8.548;2023-05-19T15:05:24;7.38;;;5.00;;
32810;SDS011;65470;47.324;8.548;2023-05-19T15:07:50;7.35;;;5.20;;
32810;SDS011;65470;47.324;8.548;2023-05-19T15:10:16;6.70;;;5.10;;
32810;SDS011;65470;47.324;8.548;2023-05-19T15:12:44;6.18;;;4.75;;
32810;SDS011;65470;47.324;8.548;2023-05-19T15:15:10;5.45;;;4.35;;